createdAt,value
2023-03-22T00:00:57.064Z,1154
2023-03-22T00:01:57.059Z,1151
2023-03-22T00:02:57.148Z,1188
2023-03-22T00:03:57.161Z,1148
2023-03-22T00:04:57.054Z,1145
2023-03-22T00:05:57.060Z,1187
2023-03-22T00:06:57.059Z,1197
2023-03-22T00:07:57.054Z,1198
2023-03-22T00:08:57.068Z,1190
2023-03-22T00:09:57.063Z,1192
2023-03-22T00:10:57.055Z,1183
2023-03-22T00:11:57.066Z,1168
2023-03-22T00:12:57.065Z,1179
2023-03-22T00:13:57.068Z,1142
2023-03-22T00:14:57.065Z,1133
2023-03-22T00:15:57.071Z,1178
2023-03-22T00:16:57.067Z,1174
2023-03-22T00:17:57.053Z,1148
2023-03-22T00:18:57.048Z,1154
2023-03-22T00:19:57.074Z,1181
2023-03-22T00:20:57.067Z,1191
2023-03-22T00:21:57.059Z,1177
2023-03-22T00:22:57.061Z,1149
2023-03-22T00:23:57.077Z,1192
2023-03-22T00:24:57.091Z,1147
2023-03-22T00:25:57.057Z,1149
2023-03-22T00:26:57.072Z,1139
2023-03-22T00:27:57.086Z,1142
2023-03-22T00:28:57.076Z,1160
2023-03-22T00:29:57.063Z,1161
2023-03-22T00:30:57.108Z,1205
2023-03-22T00:31:57.065Z,1192
2023-03-22T00:32:57.060Z,1204
2023-03-22T00:33:57.057Z,1151
2023-03-22T00:34:57.061Z,1155
2023-03-22T00:35:57.087Z,1188
2023-03-22T00:36:57.067Z,1170
2023-03-22T00:37:58.227Z,1143
2023-03-22T00:38:57.073Z,1137
2023-03-22T00:39:57.066Z,1139
2023-03-22T00:40:57.069Z,1188
2023-03-22T00:41:57.067Z,1164
2023-03-22T00:42:57.077Z,1147
2023-03-22T00:43:57.085Z,1167
2023-03-22T00:44:57.058Z,1168
2023-03-22T00:45:57.082Z,1125
2023-03-22T00:46:57.075Z,1128
2023-03-22T00:47:57.117Z,1135
2023-03-22T00:48:57.064Z,1177
2023-03-22T00:49:57.067Z,1158
2023-03-22T00:50:57.065Z,1160
2023-03-22T00:52:57.062Z,1137
2023-03-22T00:53:57.146Z,1142
2023-03-22T00:54:57.076Z,1177
2023-03-22T00:55:57.068Z,1130
2023-03-22T00:56:57.065Z,1138
2023-03-22T00:57:57.075Z,1165
2023-03-22T00:58:57.065Z,1133
2023-03-22T00:59:57.067Z,1185
2023-03-22T01:00:57.118Z,1145
2023-03-22T01:01:57.124Z,1137
2023-03-22T01:02:57.070Z,1156
2023-03-22T01:03:57.228Z,1161
2023-03-22T01:04:57.064Z,1116
2023-03-22T01:05:57.069Z,1168
2023-03-22T01:06:57.068Z,1132
2023-03-22T01:07:57.072Z,1130
2023-03-22T01:08:57.064Z,1189
2023-03-22T01:09:57.070Z,1174
2023-03-22T01:10:57.075Z,1178
2023-03-22T01:11:57.072Z,1168
2023-03-22T01:12:57.065Z,1163
2023-03-22T01:13:57.088Z,1168
2023-03-22T01:14:57.100Z,1161
2023-03-22T01:15:57.094Z,1135
2023-03-22T01:16:57.214Z,1124
2023-03-22T01:17:57.078Z,1160
2023-03-22T01:18:57.085Z,1150
2023-03-22T01:19:57.068Z,1137
2023-03-22T01:20:57.065Z,1132
2023-03-22T01:21:57.068Z,1131
2023-03-22T01:22:57.069Z,1132
2023-03-22T01:23:57.063Z,1126
2023-03-22T01:24:57.097Z,1128
2023-03-22T01:25:57.063Z,1167
2023-03-22T01:26:57.074Z,1168
2023-03-22T01:27:57.078Z,1167
2023-03-22T01:28:57.085Z,1137
2023-03-22T01:29:57.069Z,1168
2023-03-22T01:30:57.135Z,1147
2023-03-22T01:31:57.069Z,1126
2023-03-22T01:32:57.100Z,1159
2023-03-22T01:33:57.061Z,1152
2023-03-22T01:34:57.059Z,1131
2023-03-22T01:35:57.107Z,1136
2023-03-22T01:36:57.060Z,1173
2023-03-22T01:37:57.083Z,1135
2023-03-22T01:38:57.066Z,1159
2023-03-22T01:39:57.068Z,1137
2023-03-22T01:40:57.093Z,1181
2023-03-22T01:41:57.083Z,1175
2023-03-22T01:42:57.062Z,1172
2023-03-22T01:43:57.069Z,1152
2023-03-22T01:44:58.665Z,1126
2023-03-22T01:45:57.141Z,1140
2023-03-22T01:46:57.070Z,1145
2023-03-22T01:47:57.104Z,1141
2023-03-22T01:48:57.158Z,1155
2023-03-22T01:49:57.067Z,1213
2023-03-22T01:50:57.259Z,1153
2023-03-22T01:51:57.078Z,1158
2023-03-22T01:52:57.070Z,1187
2023-03-22T01:53:57.071Z,1191
2023-03-22T01:54:57.148Z,1199
2023-03-22T01:55:57.073Z,1191
2023-03-22T01:56:57.099Z,1145
2023-03-22T01:57:57.075Z,1202
2023-03-22T01:58:57.072Z,1210
2023-03-22T01:59:57.077Z,1214
2023-03-22T02:00:57.143Z,1197
2023-03-22T02:01:57.070Z,1156
2023-03-22T02:02:57.185Z,1149
2023-03-22T02:03:57.104Z,1191
2023-03-22T02:04:57.079Z,1148
2023-03-22T02:05:57.072Z,1183
2023-03-22T02:06:57.116Z,1145
2023-03-22T02:07:57.075Z,1197
2023-03-22T02:08:57.068Z,1189
2023-03-22T02:09:57.080Z,1153
2023-03-22T02:10:57.092Z,1153
2023-03-22T02:11:57.074Z,1174
2023-03-22T02:12:57.077Z,1194
2023-03-22T02:13:57.074Z,1192
2023-03-22T02:14:57.078Z,1152
2023-03-22T02:15:57.106Z,1192
2023-03-22T02:16:57.079Z,1153
2023-03-22T02:17:57.076Z,1161
2023-03-22T02:18:57.078Z,1158
2023-03-22T02:19:57.070Z,1147
2023-03-22T02:20:57.077Z,1150
2023-03-22T02:21:57.080Z,1148
2023-03-22T02:22:57.079Z,1187
2023-03-22T02:23:57.067Z,1202
2023-03-22T02:24:57.068Z,1151
2023-03-22T02:25:57.085Z,1149
2023-03-22T02:26:57.083Z,1170
2023-03-22T02:27:57.076Z,1147
2023-03-22T02:28:57.086Z,1143
2023-03-22T02:29:57.074Z,1139
2023-03-22T02:30:57.105Z,1164
2023-03-22T02:31:57.087Z,1165
2023-03-22T02:32:57.123Z,1188
2023-03-22T02:33:57.140Z,1146
2023-03-22T02:34:57.203Z,1181
2023-03-22T02:35:57.114Z,1145
2023-03-22T02:36:57.083Z,1131
2023-03-22T02:37:57.077Z,1202
2023-03-22T02:38:57.077Z,1188
2023-03-22T02:39:57.092Z,1155
2023-03-22T02:40:57.074Z,1196
2023-03-22T02:41:57.092Z,1220
2023-03-22T02:42:57.086Z,1189
2023-03-22T02:43:57.076Z,1177
2023-03-22T02:44:57.081Z,1165
2023-03-22T02:45:57.084Z,1209
2023-03-22T02:46:57.126Z,1171
2023-03-22T02:47:57.109Z,1163
2023-03-22T02:48:57.087Z,1173
2023-03-22T02:50:57.078Z,1239
2023-03-22T02:51:57.094Z,1164
2023-03-22T02:52:57.084Z,1203
2023-03-22T02:53:57.080Z,1205
2023-03-22T02:54:57.082Z,1232
2023-03-22T02:55:57.101Z,1163
2023-03-22T02:56:57.087Z,1187
2023-03-22T02:57:57.078Z,1198
2023-03-22T02:58:57.072Z,1153
2023-03-22T02:59:57.086Z,1211
2023-03-22T03:00:57.106Z,1161
2023-03-22T03:01:57.207Z,1147
2023-03-22T03:02:57.086Z,1145
2023-03-22T03:03:57.091Z,1162
2023-03-22T03:04:57.090Z,1163
2023-03-22T03:05:57.108Z,1190
2023-03-22T03:06:57.094Z,1212
2023-03-22T03:07:57.077Z,1201
2023-03-22T03:08:57.083Z,1154
2023-03-22T03:09:57.479Z,1171
2023-03-22T03:10:57.111Z,1171
2023-03-22T03:11:57.084Z,1160
2023-03-22T03:12:57.087Z,1163
2023-03-22T03:13:57.085Z,1205
2023-03-22T03:14:57.083Z,1177
2023-03-22T03:15:57.137Z,1148
2023-03-22T03:16:57.089Z,1138
2023-03-22T03:17:57.110Z,1156
2023-03-22T03:18:57.077Z,1136
2023-03-22T03:19:57.085Z,1140
2023-03-22T03:20:57.085Z,1143
2023-03-22T03:21:57.086Z,1156
2023-03-22T03:22:57.097Z,1168
2023-03-22T03:23:57.088Z,1155
2023-03-22T03:24:57.084Z,1149
2023-03-22T03:25:57.096Z,1146
2023-03-22T03:26:57.100Z,1191
2023-03-22T03:27:57.090Z,1181
2023-03-22T03:28:57.079Z,1203
2023-03-22T03:29:57.089Z,1192
2023-03-22T03:30:57.084Z,1153
2023-03-22T03:31:57.184Z,1185
2023-03-22T03:32:57.081Z,1183
2023-03-22T03:33:57.121Z,1181
2023-03-22T03:34:57.086Z,1177
2023-03-22T03:35:57.169Z,1180
2023-03-22T03:36:57.111Z,1163
2023-03-22T03:37:57.088Z,1169
2023-03-22T03:38:57.083Z,1145
2023-03-22T03:39:57.150Z,1155
2023-03-22T03:40:57.089Z,1161
2023-03-22T03:41:57.089Z,1148
2023-03-22T03:42:57.082Z,1135
2023-03-22T03:43:57.079Z,1142
2023-03-22T03:44:57.111Z,1174
2023-03-22T03:45:57.226Z,1142
2023-03-22T03:46:57.075Z,1139
2023-03-22T03:47:57.339Z,1148
2023-03-22T03:48:57.091Z,1180
2023-03-22T03:49:57.096Z,1167
2023-03-22T03:50:57.093Z,1140
2023-03-22T03:51:57.096Z,1189
2023-03-22T03:52:57.092Z,1190
2023-03-22T03:53:57.093Z,1144
2023-03-22T03:54:57.091Z,1142
2023-03-22T03:55:57.092Z,1145
2023-03-22T03:56:57.097Z,1165
2023-03-22T03:57:57.177Z,1136
2023-03-22T03:58:57.094Z,1134
2023-03-22T03:59:57.096Z,1161
2023-03-22T04:00:57.092Z,1133
2023-03-22T04:02:57.083Z,1161
2023-03-22T04:03:57.154Z,1141
2023-03-22T04:04:57.124Z,1160
2023-03-22T04:06:57.093Z,1134
2023-03-22T04:07:57.115Z,1166
2023-03-22T04:08:57.098Z,1134
2023-03-22T04:09:57.091Z,1124
2023-03-22T04:10:57.085Z,1183
2023-03-22T04:11:57.119Z,1162
2023-03-22T04:12:57.092Z,1150
2023-03-22T04:13:57.098Z,1147
2023-03-22T04:14:57.094Z,1138
2023-03-22T04:15:57.094Z,1153
2023-03-22T04:16:57.214Z,1189
2023-03-22T04:17:57.092Z,1198
2023-03-22T04:18:57.093Z,1154
2023-03-22T04:19:57.088Z,1166
2023-03-22T04:20:57.103Z,1199
2023-03-22T04:21:57.127Z,1165
2023-03-22T04:22:57.097Z,1190
2023-03-22T04:23:57.100Z,1147
2023-03-22T04:24:57.097Z,1144
2023-03-22T04:25:57.100Z,1152
2023-03-22T04:26:57.094Z,1167
2023-03-22T04:27:57.112Z,1157
2023-03-22T04:28:57.109Z,1161
2023-03-22T04:29:57.095Z,1177
2023-03-22T04:30:57.117Z,1182
2023-03-22T04:31:57.092Z,1202
2023-03-22T04:32:57.101Z,1171
2023-03-22T04:33:57.087Z,1156
2023-03-22T04:34:57.090Z,1148
2023-03-22T04:35:57.446Z,1150
2023-03-22T04:36:57.090Z,1166
2023-03-22T04:37:57.103Z,1150
2023-03-22T04:38:57.119Z,1149
2023-03-22T04:39:57.096Z,1151
2023-03-22T04:40:57.092Z,1146
2023-03-22T04:41:57.089Z,1180
2023-03-22T04:42:57.098Z,1163
2023-03-22T04:43:57.105Z,1202
2023-03-22T04:44:57.153Z,1154
2023-03-22T04:45:57.109Z,1170
2023-03-22T04:46:57.096Z,1191
2023-03-22T04:47:57.147Z,1158
2023-03-22T04:48:57.097Z,1219
2023-03-22T04:49:57.087Z,1220
2023-03-22T04:50:57.109Z,1160
2023-03-22T04:51:57.091Z,1175
2023-03-22T04:52:57.104Z,1205
2023-03-22T04:53:57.112Z,1187
2023-03-22T04:54:57.096Z,1214
2023-03-22T04:55:57.162Z,1162
2023-03-22T04:56:57.101Z,1159
2023-03-22T04:57:57.098Z,1215
2023-03-22T04:58:57.114Z,1164
2023-03-22T04:59:57.116Z,1167
2023-03-22T05:00:57.097Z,1191
2023-03-22T05:01:57.189Z,1260
2023-03-22T05:03:57.099Z,1183
2023-03-22T05:04:57.105Z,1180
2023-03-22T05:05:57.112Z,1157
2023-03-22T05:06:57.085Z,1156
2023-03-22T05:07:57.090Z,1194
2023-03-22T05:08:57.087Z,1146
2023-03-22T05:09:57.158Z,1181
2023-03-22T05:11:57.095Z,1152
2023-03-22T05:12:57.106Z,1160
2023-03-22T05:13:57.090Z,1160
2023-03-22T05:14:57.091Z,1150
2023-03-22T05:15:57.213Z,1187
2023-03-22T05:16:57.096Z,1179
2023-03-22T05:17:57.096Z,1189
2023-03-22T05:18:57.099Z,1154
2023-03-22T05:19:57.098Z,1173
2023-03-22T05:21:57.107Z,1148
2023-03-22T05:22:57.210Z,1163
2023-03-22T05:23:57.094Z,1190
2023-03-22T05:24:57.097Z,1168
2023-03-22T05:25:57.100Z,1173
2023-03-22T05:26:57.104Z,1159
2023-03-22T05:27:57.104Z,1161
2023-03-22T05:28:57.103Z,1158
2023-03-22T05:29:57.104Z,1185
2023-03-22T05:30:57.351Z,1183
2023-03-22T05:31:57.095Z,1194
2023-03-22T05:32:57.098Z,1174
2023-03-22T05:33:57.095Z,1184
2023-03-22T05:34:57.093Z,1214
2023-03-22T05:35:57.171Z,1171
2023-03-22T05:36:57.866Z,1164
2023-03-22T05:37:57.099Z,1162
2023-03-22T05:38:57.097Z,1232
2023-03-22T05:39:57.098Z,1171
2023-03-22T05:40:57.126Z,1159
2023-03-22T05:41:57.113Z,1185
2023-03-22T05:42:57.111Z,1153
2023-03-22T05:43:57.100Z,1181
2023-03-22T05:44:57.126Z,1143
2023-03-22T05:45:57.099Z,1141
2023-03-22T05:46:57.108Z,1176
2023-03-22T05:47:57.141Z,1167
2023-03-22T05:48:57.282Z,1153
2023-03-22T05:49:57.154Z,1150
2023-03-22T05:50:57.097Z,1172
2023-03-22T05:51:57.102Z,1127
2023-03-22T05:52:57.106Z,1140
2023-03-22T05:53:57.092Z,1153
2023-03-22T05:54:57.102Z,1139
2023-03-22T05:55:57.093Z,1187
2023-03-22T05:56:57.097Z,1157
2023-03-22T05:57:57.091Z,1188
2023-03-22T05:58:57.103Z,1165
2023-03-22T05:59:57.105Z,1161
2023-03-22T06:00:57.108Z,1169
2023-03-22T06:01:57.154Z,1180
2023-03-22T06:02:57.151Z,1165
2023-03-22T06:03:57.409Z,1137
2023-03-22T06:04:57.105Z,1166
2023-03-22T06:05:57.123Z,1162
2023-03-22T06:06:57.120Z,1139
2023-03-22T06:07:57.115Z,1134
2023-03-22T06:09:10.398Z,1134
2023-03-22T06:09:57.107Z,1130
2023-03-22T06:10:57.112Z,1150
2023-03-22T06:11:57.128Z,1132
2023-03-22T06:12:57.115Z,1126
2023-03-22T06:13:57.105Z,1110
2023-03-22T06:14:57.115Z,1128
2023-03-22T06:15:57.112Z,1154
2023-03-22T06:16:57.133Z,1147
2023-03-22T06:17:57.107Z,1141
2023-03-22T06:18:57.128Z,1134
2023-03-22T06:19:57.104Z,1128
2023-03-22T06:20:57.111Z,1148
2023-03-22T06:21:57.107Z,1176
2023-03-22T06:22:57.106Z,1160
2023-03-22T06:23:57.117Z,1167
2023-03-22T06:24:57.127Z,1156
2023-03-22T06:25:57.106Z,1162
2023-03-22T06:26:57.112Z,1137
2023-03-22T06:27:57.108Z,1178
2023-03-22T06:28:57.143Z,1132
2023-03-22T06:29:57.103Z,1134
2023-03-22T06:30:57.144Z,1156
2023-03-22T06:31:57.101Z,1122
2023-03-22T06:32:57.097Z,1142
2023-03-22T06:33:57.102Z,1153
2023-03-22T06:34:57.108Z,1138
2023-03-22T06:35:57.158Z,1135
2023-03-22T06:36:57.102Z,1143
2023-03-22T06:37:57.100Z,1150
2023-03-22T06:38:57.095Z,1167
2023-03-22T06:39:57.098Z,1190
2023-03-22T06:40:57.098Z,1186
2023-03-22T06:41:57.101Z,1189
2023-03-22T06:42:57.134Z,1149
2023-03-22T06:43:57.109Z,1172
2023-03-22T06:44:57.098Z,1200
2023-03-22T06:45:57.113Z,1183
2023-03-22T06:46:57.352Z,1213
2023-03-22T06:47:57.174Z,1175
2023-03-22T06:48:57.106Z,1158
2023-03-22T06:49:57.106Z,1146
2023-03-22T06:50:57.087Z,1143
2023-03-22T06:51:57.094Z,1150
2023-03-22T06:52:57.129Z,1192
2023-03-22T06:53:57.104Z,1142
2023-03-22T06:54:57.104Z,1145
2023-03-22T06:55:57.101Z,1157
2023-03-22T06:56:57.099Z,1147
2023-03-22T06:57:57.097Z,1156
2023-03-22T06:58:57.117Z,1191
2023-03-22T06:59:57.101Z,1212
2023-03-22T07:00:57.194Z,1181
2023-03-22T07:01:57.097Z,1219
2023-03-22T07:02:57.132Z,1250
2023-03-22T07:03:57.297Z,1236
2023-03-22T07:04:57.107Z,1212
2023-03-22T07:05:57.094Z,1194
2023-03-22T07:06:57.097Z,1158
2023-03-22T07:07:57.111Z,1153
2023-03-22T07:08:57.098Z,1194
2023-03-22T07:09:57.125Z,1194
2023-03-22T07:10:57.278Z,1198
2023-03-22T07:11:57.104Z,1228
2023-03-22T07:12:57.110Z,1197
2023-03-22T07:13:57.128Z,1211
2023-03-22T07:14:57.112Z,1170
2023-03-22T07:15:57.162Z,1214
2023-03-22T07:16:57.105Z,1217
2023-03-22T07:17:57.108Z,1155
2023-03-22T07:18:57.100Z,1216
2023-03-22T07:19:57.098Z,1207
2023-03-22T07:20:57.151Z,1217
2023-03-22T07:21:57.114Z,1162
2023-03-22T07:22:57.116Z,1165
2023-03-22T07:23:57.109Z,1158
2023-03-22T07:24:59.930Z,1150
2023-03-22T07:25:57.170Z,1200
2023-03-22T07:26:57.116Z,1145
2023-03-22T07:27:57.206Z,1151
2023-03-22T07:28:57.111Z,1135
2023-03-22T07:29:57.104Z,1214
2023-03-22T07:30:57.105Z,1206
2023-03-22T07:31:57.406Z,1159
2023-03-22T07:32:57.104Z,1146
2023-03-22T07:33:57.111Z,1140
2023-03-22T07:34:57.104Z,1141
2023-03-22T07:35:57.176Z,1135
2023-03-22T07:36:57.177Z,1134
2023-03-22T07:37:57.120Z,1131
2023-03-22T07:38:57.112Z,1193
2023-03-22T07:39:57.108Z,1145
2023-03-22T07:40:57.112Z,1190
2023-03-22T07:41:57.115Z,1201
2023-03-22T07:42:57.315Z,1179
2023-03-22T07:44:11.217Z,1164
2023-03-22T07:44:57.546Z,1134
2023-03-22T07:45:57.119Z,1142
2023-03-22T07:46:57.236Z,1168
2023-03-22T07:47:57.182Z,1113
2023-03-22T07:48:57.109Z,1130
2023-03-22T07:49:57.110Z,1126
2023-03-22T07:50:57.103Z,1126
2023-03-22T07:51:57.138Z,1154
2023-03-22T07:52:57.112Z,1117
2023-03-22T07:53:57.128Z,1129
2023-03-22T07:54:57.115Z,1109
2023-03-22T07:55:57.120Z,1127
2023-03-22T07:56:57.133Z,1114
2023-03-22T07:57:57.106Z,1119
2023-03-22T07:58:57.162Z,1155
2023-03-22T07:59:57.166Z,1152
2023-03-22T08:00:57.163Z,1157
2023-03-22T08:01:57.123Z,1151
2023-03-22T08:02:57.187Z,1160
2023-03-22T08:03:57.130Z,1153
2023-03-22T08:04:57.122Z,1135
2023-03-22T08:05:57.115Z,1129
2023-03-22T08:06:57.124Z,1138
2023-03-22T08:07:57.120Z,1141
2023-03-22T08:08:57.117Z,1130
2023-03-22T08:09:58.321Z,1132
2023-03-22T08:10:57.134Z,1155
2023-03-22T08:11:57.159Z,1126
2023-03-22T08:12:57.115Z,1132
2023-03-22T08:13:57.355Z,1130
2023-03-22T08:14:57.118Z,1119
2023-03-22T08:15:57.221Z,1138
2023-03-22T08:16:57.119Z,1127
2023-03-22T08:17:57.190Z,1123
2023-03-22T08:18:57.107Z,1130
2023-03-22T08:19:57.111Z,1145
2023-03-22T08:20:57.127Z,1158
2023-03-22T08:21:57.130Z,1138
2023-03-22T08:22:57.114Z,1151
2023-03-22T08:23:57.113Z,1131
2023-03-22T08:24:57.111Z,1136
2023-03-22T08:25:57.109Z,1151
2023-03-22T08:26:57.107Z,1140
2023-03-22T08:27:57.254Z,1169
2023-03-22T08:29:57.121Z,1139
2023-03-22T08:30:57.119Z,1152
2023-03-22T08:31:57.186Z,1142
2023-03-22T08:32:57.116Z,1159
2023-03-22T08:33:57.108Z,1164
2023-03-22T08:34:57.248Z,1146
2023-03-22T08:35:57.128Z,1127
2023-03-22T08:36:57.109Z,1155
2023-03-22T08:37:57.109Z,1148
2023-03-22T08:38:57.107Z,1119
2023-03-22T08:39:57.178Z,1147
2023-03-22T08:40:57.113Z,1107
2023-03-22T08:41:57.164Z,1120
2023-03-22T08:42:57.116Z,1126
2023-03-22T08:43:57.114Z,1141
2023-03-22T08:44:57.104Z,1102
2023-03-22T08:45:57.170Z,1144
2023-03-22T08:46:57.173Z,1137
2023-03-22T08:47:57.144Z,1153
2023-03-22T08:48:57.113Z,1129
2023-03-22T08:49:57.111Z,1118
2023-03-22T08:50:57.131Z,1150
2023-03-22T08:51:57.108Z,1143
2023-03-22T08:52:57.132Z,1150
2023-03-22T08:53:57.112Z,1164
2023-03-22T08:54:57.113Z,1136
2023-03-22T08:55:57.110Z,1162
2023-03-22T08:56:57.118Z,1136
2023-03-22T08:57:57.111Z,1154
2023-03-22T08:58:57.112Z,1145
2023-03-22T08:59:57.114Z,1144
2023-03-22T09:00:57.199Z,1142
2023-03-22T09:01:57.354Z,1137
2023-03-22T09:02:57.110Z,1115
2023-03-22T09:03:57.153Z,1140
2023-03-22T09:04:57.122Z,1110
2023-03-22T09:05:57.124Z,1121
2023-03-22T09:06:57.126Z,1123
2023-03-22T09:08:02.578Z,1148
2023-03-22T09:08:57.120Z,1114
2023-03-22T09:09:57.118Z,1142
2023-03-22T09:10:57.107Z,1142
2023-03-22T09:11:57.126Z,1155
2023-03-22T09:12:57.121Z,1121
2023-03-22T09:13:57.120Z,1124
2023-03-22T09:14:57.115Z,1133
2023-03-22T09:15:57.201Z,1153
2023-03-22T09:16:57.124Z,1152
2023-03-22T09:17:57.156Z,1108
2023-03-22T09:18:57.118Z,1123
2023-03-22T09:20:11.140Z,1124
2023-03-22T09:20:57.127Z,1137
2023-03-22T09:21:57.132Z,1129
2023-03-22T09:22:57.121Z,1148
2023-03-22T09:23:57.113Z,1127
2023-03-22T09:24:57.114Z,1147
2023-03-22T09:25:57.114Z,1134
2023-03-22T09:26:57.142Z,1147
2023-03-22T09:27:57.127Z,1151
2023-03-22T09:28:57.120Z,1146
2023-03-22T09:29:57.114Z,1103
2023-03-22T09:30:57.133Z,1109
2023-03-22T09:31:57.133Z,1136
2023-03-22T09:32:57.127Z,1120
2023-03-22T09:33:57.119Z,1145
2023-03-22T09:34:57.118Z,1117
2023-03-22T09:35:57.177Z,1118
2023-03-22T09:36:58.495Z,1115
2023-03-22T09:37:57.132Z,1116
2023-03-22T09:38:57.114Z,1125
2023-03-22T09:39:57.118Z,1112
2023-03-22T09:40:57.121Z,1134
2023-03-22T09:41:57.114Z,1133
2023-03-22T09:42:57.119Z,1098
2023-03-22T09:43:57.139Z,1090
2023-03-22T09:44:57.115Z,1074
2023-03-22T09:45:57.167Z,1095
2023-03-22T09:46:57.119Z,1096
2023-03-22T09:47:57.180Z,1102
2023-03-22T09:48:57.137Z,1134
2023-03-22T09:49:57.125Z,1100
2023-03-22T09:50:57.114Z,1128
2023-03-22T09:51:57.205Z,1148
2023-03-22T09:52:57.120Z,1146
2023-03-22T09:53:57.121Z,1134
2023-03-22T09:54:57.139Z,1124
2023-03-22T09:55:57.130Z,1117
2023-03-22T09:56:57.128Z,1133
2023-03-22T09:57:57.118Z,1160
2023-03-22T09:58:57.119Z,1136
2023-03-22T09:59:57.117Z,1143
2023-03-22T10:00:57.258Z,1147
2023-03-22T10:01:57.489Z,1146
2023-03-22T10:02:57.135Z,1114
2023-03-22T10:03:57.174Z,1115
2023-03-22T10:04:57.117Z,1142
2023-03-22T10:05:57.119Z,1126
2023-03-22T10:06:57.122Z,1156
2023-03-22T10:07:57.121Z,1149
2023-03-22T10:08:57.122Z,1124
2023-03-22T10:09:57.117Z,1144
2023-03-22T10:10:57.125Z,1141
2023-03-22T10:11:57.125Z,1128
2023-03-22T10:12:57.119Z,1128
2023-03-22T10:13:57.114Z,1135
2023-03-22T10:14:57.116Z,1139
2023-03-22T10:15:57.270Z,1137
2023-03-22T10:16:57.126Z,1128
2023-03-22T10:17:57.131Z,1153
2023-03-22T10:18:57.128Z,1115
2023-03-22T10:19:57.147Z,1146
2023-03-22T10:20:57.178Z,1139
2023-03-22T10:21:57.127Z,1137
2023-03-22T10:22:57.111Z,1084
2023-03-22T10:23:57.121Z,1115
2023-03-22T10:24:57.127Z,1136
2023-03-22T10:25:57.106Z,1103
2023-03-22T10:26:57.119Z,1095
2023-03-22T10:27:57.988Z,1098
2023-03-22T10:28:57.130Z,1119
2023-03-22T10:29:57.123Z,1112
2023-03-22T10:30:57.139Z,1123
2023-03-22T10:31:57.244Z,1104
2023-03-22T10:32:58.300Z,1127
2023-03-22T10:33:57.262Z,1138
2023-03-22T10:34:57.153Z,1106
2023-03-22T10:35:57.197Z,1128
2023-03-22T10:36:57.129Z,1090
2023-03-22T10:37:57.164Z,1113
2023-03-22T10:38:57.116Z,1106
2023-03-22T10:39:57.139Z,1092
2023-03-22T10:40:57.114Z,1101
2023-03-22T10:41:58.157Z,1104
2023-03-22T10:42:57.146Z,1078
2023-03-22T10:43:57.158Z,1108
2023-03-22T10:44:57.136Z,1136
2023-03-22T10:45:57.135Z,1124
2023-03-22T10:46:57.163Z,1112
2023-03-22T10:47:57.147Z,1138
2023-03-22T10:48:57.154Z,1142
2023-03-22T10:49:57.134Z,1124
2023-03-22T10:50:57.154Z,1138
2023-03-22T10:51:57.117Z,1148
2023-03-22T10:52:57.132Z,1149
2023-03-22T10:53:57.239Z,1116
2023-03-22T10:55:00.245Z,1110
2023-03-22T10:55:57.127Z,1134
2023-03-22T10:56:57.287Z,1112
2023-03-22T10:57:57.133Z,1133
2023-03-22T10:58:57.128Z,1149
2023-03-22T10:59:57.152Z,1130
2023-03-22T11:00:57.354Z,1128
2023-03-22T11:01:57.404Z,1103
2023-03-22T11:02:57.233Z,1108
2023-03-22T11:03:57.131Z,1105
2023-03-22T11:04:57.127Z,1141
2023-03-22T11:05:57.140Z,1126
2023-03-22T11:06:57.130Z,1098
2023-03-22T11:07:57.205Z,1097
2023-03-22T11:08:57.328Z,1085
2023-03-22T11:09:57.126Z,1091
2023-03-22T11:10:57.147Z,1119
2023-03-22T11:11:57.128Z,1137
2023-03-22T11:12:57.133Z,1095
2023-03-22T11:13:57.121Z,1099
2023-03-22T11:14:57.134Z,1134
2023-03-22T11:15:57.133Z,1106
2023-03-22T11:16:57.134Z,1142
2023-03-22T11:17:57.129Z,1114
2023-03-22T11:18:57.125Z,1128
2023-03-22T11:19:57.159Z,1100
2023-03-22T11:20:57.126Z,1103
2023-03-22T11:21:57.154Z,1108
2023-03-22T11:22:57.270Z,1087
2023-03-22T11:23:57.138Z,1101
2023-03-22T11:24:57.124Z,1082
2023-03-22T11:25:57.129Z,1080
2023-03-22T11:26:57.128Z,1078
2023-03-22T11:27:57.175Z,1106
2023-03-22T11:28:57.141Z,1128
2023-03-22T11:29:57.126Z,1100
2023-03-22T11:30:57.201Z,1086
2023-03-22T11:31:57.348Z,1094
2023-03-22T11:32:57.212Z,1120
2023-03-22T11:33:57.136Z,1102
2023-03-22T11:34:57.135Z,1083
2023-03-22T11:35:57.243Z,1113
2023-03-22T11:36:57.216Z,1127
2023-03-22T11:37:57.139Z,1146
2023-03-22T11:38:57.148Z,1111
2023-03-22T11:39:57.134Z,1128
2023-03-22T11:40:57.131Z,1134
2023-03-22T11:41:57.162Z,1104
2023-03-22T11:42:57.158Z,1112
2023-03-22T11:43:57.119Z,1125
2023-03-22T11:44:57.171Z,1095
2023-03-22T11:45:57.191Z,1120
2023-03-22T11:46:57.142Z,1098
2023-03-22T11:47:57.249Z,1077
2023-03-22T11:49:00.355Z,1088
2023-03-22T11:49:57.189Z,1109
2023-03-22T11:50:57.144Z,1116
2023-03-22T11:51:57.144Z,1100
2023-03-22T11:52:57.248Z,1097
2023-03-22T11:53:57.135Z,1120
2023-03-22T11:54:57.138Z,1124
2023-03-22T11:55:57.132Z,1072
2023-03-22T11:56:57.142Z,1077
2023-03-22T11:57:57.140Z,1108
2023-03-22T11:58:57.142Z,1086
2023-03-22T11:59:57.144Z,1081
2023-03-22T12:00:57.134Z,1085
2023-03-22T12:01:57.150Z,1096
2023-03-22T12:02:57.297Z,1078
2023-03-22T12:03:57.245Z,1115
2023-03-22T12:04:57.264Z,1097
2023-03-22T12:05:57.192Z,1089
2023-03-22T12:06:57.322Z,1122
2023-03-22T12:07:57.130Z,1085
2023-03-22T12:08:57.142Z,1096
2023-03-22T12:09:58.426Z,1091
2023-03-22T12:10:57.128Z,1075
2023-03-22T12:11:57.143Z,1103
2023-03-22T12:12:57.134Z,1087
2023-03-22T12:13:57.187Z,1120
2023-03-22T12:14:57.142Z,1085
2023-03-22T12:15:57.227Z,1091
2023-03-22T12:16:57.138Z,1090
2023-03-22T12:17:57.174Z,1091
2023-03-22T12:18:57.138Z,1124
2023-03-22T12:19:57.131Z,1096
2023-03-22T12:20:57.142Z,1124
2023-03-22T12:21:57.137Z,1138
2023-03-22T12:22:57.146Z,1104
2023-03-22T12:23:57.204Z,1129
2023-03-22T12:24:57.137Z,1089
2023-03-22T12:25:57.132Z,1101
2023-03-22T12:26:57.137Z,1125
2023-03-22T12:27:57.147Z,1097
2023-03-22T12:28:57.128Z,1095
2023-03-22T12:29:57.147Z,1118
2023-03-22T12:30:57.181Z,1115
2023-03-22T12:31:57.327Z,1120
2023-03-22T12:32:57.195Z,1108
2023-03-22T12:33:57.146Z,1129
2023-03-22T12:35:09.253Z,1103
2023-03-22T12:35:57.302Z,1098
2023-03-22T12:36:57.128Z,1115
2023-03-22T12:37:57.139Z,1124
2023-03-22T12:38:57.131Z,1102
2023-03-22T12:39:57.139Z,1089
2023-03-22T12:40:57.136Z,1089
2023-03-22T12:41:57.130Z,1123
2023-03-22T12:42:59.682Z,1098
2023-03-22T12:43:57.135Z,1128
2023-03-22T12:45:04.665Z,1102
2023-03-22T12:45:57.135Z,1132
2023-03-22T12:46:57.230Z,1116
2023-03-22T12:47:57.308Z,1090
2023-03-22T12:48:57.184Z,1129
2023-03-22T12:49:57.158Z,1086
2023-03-22T12:50:57.152Z,1096
2023-03-22T12:51:57.136Z,1100
2023-03-22T12:52:57.193Z,1093
2023-03-22T12:53:57.143Z,1101
2023-03-22T12:54:57.158Z,1101
2023-03-22T12:55:57.192Z,1088
2023-03-22T12:56:57.136Z,1113
2023-03-22T12:57:57.140Z,1111
2023-03-22T12:58:57.152Z,1124
2023-03-22T12:59:57.181Z,1131
2023-03-22T13:00:57.202Z,1101
2023-03-22T13:01:57.144Z,1111
2023-03-22T13:02:57.226Z,1113
2023-03-22T13:03:57.273Z,1095
2023-03-22T13:04:57.140Z,1124
2023-03-22T13:05:57.146Z,1105
2023-03-22T13:06:57.145Z,1108
2023-03-22T13:07:57.171Z,1105
2023-03-22T13:08:57.146Z,1103
2023-03-22T13:09:57.137Z,1133
2023-03-22T13:10:57.140Z,1079
2023-03-22T13:11:57.149Z,1127
2023-03-22T13:12:57.159Z,1097
2023-03-22T13:13:57.150Z,1135
2023-03-22T13:14:57.190Z,1130
2023-03-22T13:15:57.154Z,1103
2023-03-22T13:16:57.217Z,1118
2023-03-22T13:17:57.199Z,1100
2023-03-22T13:18:57.187Z,1085
2023-03-22T13:19:57.147Z,1098
2023-03-22T13:20:57.144Z,1091
2023-03-22T13:21:57.138Z,1121
2023-03-22T13:22:57.156Z,1106
2023-03-22T13:23:57.168Z,1079
2023-03-22T13:24:57.134Z,1080
2023-03-22T13:25:57.180Z,1070
2023-03-22T13:26:57.151Z,1077